Time;durP1;ratioP1;P1;durP2;ratioP2;P2;SDS_P1;SDS_P2;PMS_P1;PMS_P2;Temp;Humidity;BMP_temperature;BMP_pressure;BME280_temperature;BME280_humidity;BME280_pressure;Samples;Min_cycle;Max_cycle;Signal;HPM_P1;HPM_P2
2022/08/07 00:00:43;;;;;;;9.00;6.78;;;;;;;;;;5111835;28;20063;-83
2022/08/07 00:03:10;;;;;;;7.95;6.35;;;;;;;;;;5093819;28;20046;-82
2022/08/07 00:05:36;;;;;;;9.68;6.57;;;13.10;99.90;;;;;;5111856;28;20479;-83
2022/08/07 00:08:03;;;;;;;8.57;5.47;;;;;;;;;;5111842;28;20104;-83
2022/08/07 00:10:29;;;;;;;6.60;4.97;;;13.10;99.90;;;;;;5093302;28;20058;-83
2022/08/07 00:12:56;;;;;;;12.10;5.28;;;;;;;;;;5111544;28;20046;-83
2022/08/07 00:15:24;;;;;;;8.35;6.65;;;;;;;;;;5094086;28;20051;-83
2022/08/07 00:17:50;;;;;;;9.73;6.03;;;;;;;;;;5097642;28;20055;-82
2022/08/07 00:20:16;;;;;;;6.38;5.22;;;;;;;;;;5097618;28;20054;-83
2022/08/07 00:22:42;;;;;;;9.13;5.00;;;;;;;;;;5097300;28;20496;-83
2022/08/07 00:25:08;;;;;;;6.93;5.20;;;;;;;;;;5097063;28;20063;-84
2022/08/07 00:27:35;;;;;;;8.23;6.40;;;12.90;99.90;;;;;;5115372;28;20053;-84
2022/08/07 00:30:03;;;;;;;11.35;5.63;;;12.80;99.90;;;;;;5114986;28;20044;-85
2022/08/07 00:32:29;;;;;;;8.07;6.43;;;;;;;;;;5079955;28;20046;-83
2022/08/07 00:34:55;;;;;;;8.73;6.60;;;;;;;;;;5080230;28;20039;-84
2022/08/07 00:37:21;;;;;;;8.07;5.95;;;;;;;;;;5080423;28;20270;-85
2022/08/07 00:39:47;;;;;;;7.95;6.05;;;;;;;;;;5080022;28;20040;-85
2022/08/07 00:42:13;;;;;;;13.68;6.47;;;;;;;;;;5097012;28;20050;-85
2022/08/07 00:44:39;;;;;;;7.65;6.03;;;;;;;;;;5079727;28;20120;-85
2022/08/07 00:47:07;;;;;;;6.28;4.93;;;;;;;;;;5096705;28;20054;-85
2022/08/07 00:49:33;;;;;;;5.97;5.38;;;;;;;;;;5080102;28;20112;-84
2022/08/07 00:51:59;;;;;;;6.38;5.50;;;;;;;;;;5096297;28;20477;-84
2022/08/07 00:54:25;;;;;;;6.55;4.80;;;;;;;;;;5096801;28;20048;-86
2022/08/07 00:56:51;;;;;;;8.63;6.50;;;;;;;;;;5096490;28;20181;-85
2022/08/07 00:59:18;;;;;;;7.40;5.63;;;12.50;99.90;;;;;;5079618;28;20119;-85
2022/08/07 01:01:44;;;;;;;6.60;5.00;;;;;;;;;;5096185;28;20053;-81
2022/08/07 01:04:10;;;;;;;7.63;5.45;;;;;;;;;;5096211;28;20054;-84
2022/08/07 01:06:36;;;;;;;7.25;5.68;;;;;;;;;;5079689;28;20043;-84
2022/08/07 01:09:03;;;;;;;5.43;4.55;;;;;;;;;;5079518;28;20035;-83
2022/08/07 01:11:30;;;;;;;7.68;6.00;;;;;;;;;;5096102;28;20040;-84
2022/08/07 01:13:56;;;;;;;7.22;5.53;;;;;;;;;;5096140;28;20048;-81
2022/08/07 01:16:22;;;;;;;7.97;6.07;;;;;;;;;;5095942;28;20058;-84
2022/08/07 01:18:48;;;;;;;9.10;6.65;;;;;;;;;;5096123;28;20130;-83
2022/08/07 01:21:16;;;;;;;12.93;7.65;;;12.20;99.90;;;;;;5096329;28;20070;-81
2022/08/07 01:23:43;;;;;;;13.90;7.72;;;12.30;99.90;;;;;;5078994;28;20127;-83
2022/08/07 01:26:13;;;;;;;11.63;9.25;;;12.40;99.90;;;;;;5096350;28;20047;-83
2022/08/07 01:28:43;;;;;;;12.77;9.30;;;12.20;99.90;;;;;;5095093;28;20427;-84
2022/08/07 01:31:09;;;;;;;12.05;8.75;;;;;;;;;;5113746;28;20042;-83
2022/08/07 01:33:35;;;;;;;10.23;8.63;;;;;;;;;;5114480;28;20043;-84
2022/08/07 01:36:02;;;;;;;13.82;8.82;;;;;;;;;;5096209;28;20055;-84
2022/08/07 01:38:28;;;;;;;14.55;10.18;;;12.30;99.90;;;;;;5078888;28;20507;-83
2022/08/07 01:40:57;;;;;;;15.00;8.27;;;12.30;99.90;;;;;;5096085;28;20445;-83
2022/08/07 01:43:23;;;;;;;9.82;7.43;;;;;;;;;;5113966;28;20119;-83
2022/08/07 01:45:50;;;;;;;9.40;7.18;;;;;;;;;;5114160;28;20064;-82
2022/08/07 01:48:16;;;;;;;9.38;7.88;;;;;;;;;;5095324;28;20161;-83
2022/08/07 01:51:13;;;;;;;12.55;8.38;;;12.50;99.90;;;;;;5113527;28;20415;-83
2022/08/07 01:53:42;;;;;;;12.52;7.43;;;;;;;;;;5034245;28;20151;-84
2022/08/07 01:56:28;;;;;;;9.13;6.88;;;12.30;99.90;;;;;;5051006;28;20044;-83
2022/08/07 01:59:08;;;;;;;10.77;7.03;;;12.30;99.90;;;;;;5034326;28;20084;-84
2022/08/07 02:01:42;;;;;;;9.63;6.95;;;12.40;99.90;;;;;;5034430;28;20048;-84
2022/08/07 02:04:24;;;;;;;9.95;7.82;;;12.30;99.90;;;;;;5034003;28;20053;-84
2022/08/07 02:06:51;;;;;;;10.27;6.72;;;;;;;;;;5017808;28;20397;-84
2022/08/07 02:09:19;;;;;;;10.07;7.13;;;12.30;99.90;;;;;;5050924;28;20045;-83
2022/08/07 02:11:49;;;;;;;10.60;7.53;;;12.40;99.90;;;;;;5033704;28;20098;-82
2022/08/07 02:14:17;;;;;;;9.73;7.32;;;12.40;99.90;;;;;;5033529;28;20096;-81
2022/08/07 02:16:46;;;;;;;8.75;6.68;;;12.50;99.90;;;;;;5017346;28;20636;-82
2022/08/07 02:19:13;;;;;;;8.35;7.07;;;;;;;;;;5016814;28;20037;-82
2022/08/07 02:21:40;;;;;;;8.00;6.72;;;12.40;99.90;;;;;;5050200;28;20498;-84
2022/08/07 02:24:07;;;;;;;12.18;7.22;;;;;;;;;;5017155;28;20076;-85
2022/08/07 02:26:34;;;;;;;10.07;6.22;;;12.40;99.90;;;;;;5017449;28;20086;-84
2022/08/07 02:29:01;;;;;;;10.95;6.95;;;;;;;;;;5021264;28;20131;-85
2022/08/07 02:31:29;;;;;;;8.88;6.40;;;;;;;;;;5113192;28;20051;-84
2022/08/07 02:33:56;;;;;;;9.52;6.25;;;;;;;;;;5113183;28;20043;-85
2022/08/07 02:36:22;;;;;;;12.88;8.50;;;;;;;;;;5096789;28;20104;-84
2022/08/07 02:38:49;;;;;;;11.40;7.90;;;;;;;;;;5097130;28;20541;-85
2022/08/07 02:41:15;;;;;;;12.00;8.48;;;;;;;;;;5096905;28;20503;-84
2022/08/07 02:43:42;;;;;;;7.55;6.00;;;;;;;;;;5114800;28;20101;-84
2022/08/07 02:46:09;;;;;;;7.00;5.72;;;;;;;;;;5115052;28;20048;-85
2022/08/07 02:48:36;;;;;;;10.30;6.68;;;;;;;;;;5114659;28;20079;-86
2022/08/07 02:51:05;;;;;;;8.25;6.78;;;;;;;;;;5094877;28;20051;-84
2022/08/07 02:53:32;;;;;;;6.45;5.63;;;;;;;;;;5077924;28;20055;-85
2022/08/07 02:55:59;;;;;;;9.68;6.63;;;;;;;;;;5112354;28;20496;-84
2022/08/07 02:58:27;;;;;;;7.60;6.18;;;;;;;;;;5112584;28;20560;-84
2022/08/07 03:00:55;;;;;;;11.00;6.50;;;;;;;;;;5094551;28;20043;-83
2022/08/07 03:03:23;;;;;;;9.35;6.85;;;11.90;99.90;;;;;;5077400;28;20134;-83
2022/08/07 03:05:55;;;;;;;7.78;6.18;;;11.90;99.90;;;;;;5094410;28;20098;-83
2022/08/07 03:08:21;;;;;;;12.57;7.13;;;12.10;99.90;;;;;;5077428;28;20048;-82
2022/08/07 03:10:47;;;;;;;8.45;6.75;;;;;;;;;;5094196;28;20063;-81
2022/08/07 03:13:17;;;;;;;8.70;6.75;;;;;;;;;;5094198;28;20050;-83
2022/08/07 03:15:43;;;;;;;11.98;7.30;;;;;;;;;;5077284;28;20507;-82
2022/08/07 03:18:10;;;;;;;10.70;6.20;;;12.00;99.90;;;;;;5093822;28;20122;-83
2022/08/07 03:20:36;;;;;;;10.13;6.47;;;;;;;;;;5093786;28;20040;-82
2022/08/07 03:23:03;;;;;;;9.02;6.57;;;12.10;99.90;;;;;;5112340;28;20373;-82
2022/08/07 03:25:32;;;;;;;8.23;6.68;;;;;;;;;;5112295;28;20122;-84
2022/08/07 03:27:59;;;;;;;8.70;6.50;;;;;;;;;;5112425;28;20483;-82
2022/08/07 03:30:25;;;;;;;9.13;6.57;;;12.20;99.90;;;;;;5093763;28;20050;-81
2022/08/07 03:32:52;;;;;;;7.70;5.70;;;12.10;99.90;;;;;;5093936;28;20043;-82
2022/08/07 03:35:24;;;;;;;8.10;6.35;;;12.00;99.90;;;;;;5111806;28;20043;-82
2022/08/07 03:37:53;;;;;;;10.20;7.65;;;;;;;;;;5112075;28;20039;-82
2022/08/07 03:40:19;;;;;;;8.57;6.82;;;;;;;;;;5112025;28;20040;-82
2022/08/07 03:42:45;;;;;;;9.40;7.03;;;;;;;;;;5112136;28;20080;-83
2022/08/07 03:45:12;;;;;;;9.75;7.15;;;12.00;99.90;;;;;;5076990;28;20408;-82
2022/08/07 03:47:38;;;;;;;9.88;6.75;;;;;;;;;;5111748;28;20114;-82
2022/08/07 03:50:05;;;;;;;10.63;7.18;;;;;;;;;;5112257;28;20047;-83
2022/08/07 03:52:31;;;;;;;9.70;6.25;;;;;;;;;;5097495;28;20063;-82
2022/08/07 03:54:58;;;;;;;8.40;6.38;;;;;;;;;;5081193;28;20048;-82
2022/08/07 03:57:26;;;;;;;10.68;6.57;;;;;;;;;;5080837;28;20068;-83
2022/08/07 03:59:52;;;;;;;9.32;6.47;;;;;;;;;;5097508;28;20052;-82
2022/08/07 04:02:18;;;;;;;8.40;6.38;;;;;;;;;;5115614;28;20039;-83
2022/08/07 04:04:44;;;;;;;9.90;7.05;;;;;;;;;;5097692;28;20399;-85
2022/08/07 04:07:10;;;;;;;9.75;7.00;;;;;;;;;;5115563;28;20051;-84
2022/08/07 04:09:37;;;;;;;10.20;6.85;;;;;;;;;;5097654;28;20079;-83
2022/08/07 04:12:04;;;;;;;13.93;6.95;;;;;;;;;;5097756;28;20036;-83
2022/08/07 04:14:30;;;;;;;9.07;7.68;;;;;;;;;;5115820;28;20058;-82
2022/08/07 04:16:56;;;;;;;9.43;7.25;;;;;;;;;;5097415;28;20039;-83
2022/08/07 04:19:24;;;;;;;9.52;6.68;;;;;;;;;;5115744;28;20051;-82
2022/08/07 04:21:51;;;;;;;10.60;6.45;;;;;;;;;;5097048;28;20119;-84
2022/08/07 04:24:18;;;;;;;8.60;6.68;;;;;;;;;;5097357;28;20567;-83
2022/08/07 04:26:44;;;;;;;10.65;6.97;;;;;;;;;;5097046;28;20134;-83
2022/08/07 04:29:10;;;;;;;8.82;6.57;;;;;;;;;;5115343;28;20047;-84
2022/08/07 04:31:37;;;;;;;10.50;7.57;;;;;;;;;;5080393;28;20043;-84
2022/08/07 04:34:03;;;;;;;8.85;7.28;;;;;;;;;;5097302;28;20442;-82
2022/08/07 04:36:30;;;;;;;14.05;7.75;;;;;;;;;;5115480;28;20044;-83
2022/08/07 04:38:56;;;;;;;7.88;6.40;;;;;;;;;;5096587;28;20407;-82
2022/08/07 04:41:22;;;;;;;19.48;7.68;;;;;;;;;;5097061;28;20082;-82
2022/08/07 04:43:49;;;;;;;9.73;6.85;;;;;;;;;;5115297;28;20040;-84
2022/08/07 04:46:15;;;;;;;9.88;7.10;;;;;;;;;;5114779;28;20096;-82
2022/08/07 04:48:50;;;;;;;11.57;7.28;;;;;;;;;;5114832;28;20127;-82
2022/08/07 04:51:26;;;;;;;12.80;7.43;;;11.80;99.90;;;;;;5114686;28;20059;-83
2022/08/07 04:54:15;;;;;;;9.40;7.43;;;11.80;99.90;;;;;;5096278;28;20105;-83
2022/08/07 04:56:47;;;;;;;8.93;7.38;;;;;;;;;;5096444;28;20055;-83
2022/08/07 04:59:54;;;;;;;9.93;7.00;;;11.70;99.90;;;;;;5079706;28;20517;-84
2022/08/07 05:02:28;;;;;;;9.82;7.38;;;11.90;99.90;;;;;;5112930;28;20101;-83
2022/08/07 05:04:53;;;;;;;;;;;11.90;99.90;;;;;;5097042;28;20419;-82
2022/08/07 05:07:27;;;;;;;10.60;5.90;;;11.70;99.90;;;;;;5096860;28;19924;-82
2022/08/07 05:09:57;;;;;;;10.57;6.68;;;;;;;;;;5096143;28;20048;-81
2022/08/07 05:12:30;;;;;;;9.57;7.35;;;12.00;99.90;;;;;;5096386;28;20561;-83
2022/08/07 05:15:14;;;;;;;9.48;7.10;;;11.80;99.90;;;;;;5079373;28;20075;-84
2022/08/07 05:17:41;;;;;;;9.35;6.80;;;;;;;;;;5079394;28;20044;-81
2022/08/07 05:20:08;;;;;;;7.53;5.90;;;;;;;;;;5096232;28;20039;-84
2022/08/07 05:22:35;;;;;;;9.30;6.78;;;;;;;;;;5114684;28;20105;-83
2022/08/07 05:25:01;;;;;;;11.70;6.10;;;;;;;;;;5113872;28;20504;-83
2022/08/07 05:27:29;;;;;;;10.07;6.05;;;12.10;99.90;;;;;;5114313;28;20083;-84
2022/08/07 05:29:56;;;;;;;9.27;6.13;;;;;;;;;;5079142;28;20047;-83
2022/08/07 05:32:25;;;;;;;6.57;5.47;;;;;;;;;;5096200;28;20059;-84
2022/08/07 05:34:51;;;;;;;8.48;6.88;;;;;;;;;;5096017;28;20042;-85
2022/08/07 05:37:18;;;;;;;9.48;5.70;;;;;;;;;;5114562;28;20079;-85
2022/08/07 05:39:44;;;;;;;13.25;6.47;;;;;;;;;;5095843;28;20499;-84
2022/08/07 05:42:12;;;;;;;9.68;6.65;;;;;;;;;;5079049;28;20040;-84
2022/08/07 05:44:38;;;;;;;9.10;6.15;;;;;;;;;;5082875;28;20517;-84
2022/08/07 05:47:05;;;;;;;8.55;5.88;;;;;;;;;;5082966;28;20043;-82
2022/08/07 05:49:31;;;;;;;8.98;6.35;;;;;;;;;;5119044;28;20075;-83
2022/08/07 05:51:57;;;;;;;9.90;6.28;;;;;;;;;;5080705;28;20460;-83
2022/08/07 05:54:24;;;;;;;8.02;6.25;;;;;;;;;;5115995;28;20381;-84
2022/08/07 05:56:51;;;;;;;7.53;6.45;;;13.20;99.90;;;;;;5095336;28;20058;-83
2022/08/07 05:59:18;;;;;;;9.43;5.70;;;;;;;;;;5095567;28;20042;-83
2022/08/07 06:01:45;;;;;;;9.35;6.43;;;;;;;;;;5095186;28;20062;-83
2022/08/07 06:04:13;;;;;;;9.68;5.20;;;;;;;;;;5078541;28;20047;-85
2022/08/07 06:06:39;;;;;;;7.57;5.60;;;;;;;;;;5113308;28;20126;-84
2022/08/07 06:09:06;;;;;;;6.32;5.65;;;;;;;;;;5113645;28;20135;-83
2022/08/07 06:11:33;;;;;;;7.05;5.20;;;13.60;99.90;;;;;;5094643;28;20054;-84
2022/08/07 06:13:59;;;;;;;10.77;7.10;;;;;;;;;;5094855;28;20381;-83
2022/08/07 06:16:30;;;;;;;12.10;8.85;;;13.60;99.90;;;;;;5095266;28;20108;-83
2022/08/07 06:18:57;;;;;;;10.68;6.22;;;;;;;;;;5094847;28;20044;-81
2022/08/07 06:21:23;;;;;;;7.38;5.38;;;;;;;;;;5077954;28;20131;-83
2022/08/07 06:23:49;;;;;;;6.90;5.68;;;;;;;;;;5094727;28;20047;-84
2022/08/07 06:26:16;;;;;;;7.60;5.65;;;;;;;;;;5112660;28;20511;-80
2022/08/07 06:28:52;;;;;;;7.63;5.20;;;14.30;99.90;;;;;;5113036;28;20050;-80
2022/08/07 06:31:19;;;;;;;6.75;5.20;;;14.30;99.90;;;;;;5095002;28;20053;-83
2022/08/07 06:33:46;;;;;;;6.22;5.45;;;14.10;99.90;;;;;;5113350;28;20048;-84
2022/08/07 06:36:12;;;;;;;6.90;5.43;;;14.30;99.90;;;;;;5113058;28;20464;-82
2022/08/07 06:38:38;;;;;;;6.15;4.68;;;;;;;;;;5112836;28;20407;-80
2022/08/07 06:41:11;;;;;;;5.80;4.80;;;14.60;99.90;;;;;;5077601;28;20086;-82
2022/08/07 06:43:39;;;;;;;7.00;4.63;;;14.80;99.90;;;;;;5112761;28;20082;-83
2022/08/07 06:46:06;;;;;;;7.40;5.30;;;14.60;99.90;;;;;;5112896;28;20044;-82
2022/08/07 06:48:31;;;;;;;4.40;3.78;;;15.00;99.90;;;;;;5094432;28;20054;-83
2022/08/07 06:51:03;;;;;;;6.45;5.25;;;15.00;99.90;;;;;;5077800;28;20079;-82
2022/08/07 06:53:29;;;;;;;6.38;4.50;;;15.10;99.90;;;;;;5094298;28;20051;-83
2022/08/07 06:55:55;;;;;;;6.60;4.88;;;;;;;;;;5077608;28;20083;-83
2022/08/07 06:58:23;;;;;;;7.88;4.68;;;15.20;99.90;;;;;;5077167;28;20044;-83
2022/08/07 07:00:49;;;;;;;9.00;4.45;;;15.20;99.90;;;;;;5077240;28;20082;-83
2022/08/07 07:03:16;;;;;;;6.93;4.68;;;;;;;;;;5094435;28;20445;-81
2022/08/07 07:05:42;;;;;;;6.88;4.43;;;;;;;;;;5094168;28;20087;-82
2022/08/07 07:08:11;;;;;;;7.00;4.13;;;;;;;;;;5094100;28;20500;-82
2022/08/07 07:10:37;;;;;;;7.75;4.40;;;;;;;;;;5094225;28;20109;-81
2022/08/07 07:13:18;;;;;;;5.60;4.55;;;15.80;99.90;;;;;;5093879;28;20089;-82
2022/08/07 07:15:48;;;;;;;5.15;3.60;;;15.70;99.90;;;;;;5093884;28;20101;-82
2022/08/07 07:18:21;;;;;;;3.72;3.10;;;16.10;99.90;;;;;;5094026;28;20084;-81
2022/08/07 07:20:53;;;;;;;5.32;3.40;;;16.10;99.90;;;;;;5093804;28;20484;-81
2022/08/07 07:23:19;;;;;;;5.50;3.92;;;16.10;99.90;;;;;;5077431;28;20053;-82
2022/08/07 07:25:50;;;;;;;4.47;3.47;;;16.10;99.90;;;;;;5093460;28;20063;-82
2022/08/07 07:28:20;;;;;;;4.97;3.55;;;16.30;99.90;;;;;;5093984;28;20119;-83
2022/08/07 07:30:54;;;;;;;3.70;3.40;;;16.40;99.90;;;;;;5093817;28;20039;-82
2022/08/07 07:33:22;;;;;;;6.43;3.40;;;16.50;99.90;;;;;;5112046;28;20495;-82
2022/08/07 07:35:50;;;;;;;5.20;3.65;;;16.60;99.90;;;;;;5093749;28;20526;-82
2022/08/07 07:38:19;;;;;;;6.25;4.10;;;16.60;99.90;;;;;;5093807;28;20040;-83
2022/08/07 07:40:48;;;;;;;7.05;4.28;;;16.70;99.90;;;;;;5093715;28;20054;-83
2022/08/07 07:43:16;;;;;;;11.65;4.82;;;16.60;99.90;;;;;;5093663;28;20051;-83
2022/08/07 07:45:44;;;;;;;4.63;3.85;;;16.90;99.90;;;;;;5093502;28;20488;-83
2022/08/07 07:48:13;;;;;;;8.10;4.60;;;17.00;99.90;;;;;;5111943;28;20480;-84
2022/08/07 07:50:40;;;;;;;5.43;4.50;;;17.10;99.90;;;;;;5093548;28;20044;-84
2022/08/07 07:53:10;;;;;;;5.95;4.90;;;17.20;99.90;;;;;;5077988;28;20488;-85
2022/08/07 07:55:37;;;;;;;5.75;4.38;;;17.40;99.90;;;;;;5077844;28;20039;-84
2022/08/07 07:58:04;;;;;;;5.43;4.93;;;17.30;99.90;;;;;;5077353;28;20078;-84
2022/08/07 08:00:31;;;;;;;7.47;4.15;;;17.10;99.90;;;;;;5093580;28;20040;-83
2022/08/07 08:03:08;;;;;;;4.78;4.28;;;17.10;99.90;;;;;;5077259;28;20058;-82
2022/08/07 08:05:37;;;;;;;4.80;4.35;;;17.60;99.90;;;;;;5076919;28;20049;-83
2022/08/07 08:08:03;;;;;;;5.32;4.10;;;17.60;99.90;;;;;;5076688;28;20044;-84
2022/08/07 08:10:30;;;;;;;10.52;4.78;;;17.60;99.90;;;;;;5076492;28;20043;-82
2022/08/07 08:12:56;;;;;;;7.72;4.38;;;;;;;;;;5093359;28;20527;-85
2022/08/07 08:15:22;;;;;;;9.73;4.00;;;;;;;;;;5093627;28;20483;-82
2022/08/07 08:17:49;;;;;;;4.80;4.28;;;;;;;;;;5076627;28;20036;-84
2022/08/07 08:20:17;;;;;;;6.38;5.05;;;17.80;99.90;;;;;;5093300;28;20126;-84
2022/08/07 08:28:28;;;;;;;8.73;3.88;;;18.30;99.90;;;;;;5094482;28;20138;-82
2022/08/07 08:30:59;;;;;;;4.63;4.13;;;18.30;99.90;;;;;;5094041;28;20051;-82
2022/08/07 08:33:31;;;;;;;4.38;3.80;;;18.30;99.90;;;;;;5077584;28;20040;-85
2022/08/07 08:35:58;;;;;;;5.43;3.97;;;18.20;99.90;;;;;;5094510;28;20382;-82
2022/08/07 08:38:32;;;;;;;4.85;3.90;;;18.50;99.90;;;;;;5081158;28;20048;-82
2022/08/07 08:41:10;;;;;;;5.13;4.03;;;18.50;99.90;;;;;;5097889;28;20075;-83
2022/08/07 08:44:09;;;;;;;3.90;3.60;;;18.50;99.90;;;;;;5098554;28;20044;-82
2022/08/07 08:46:53;;;;;;;6.40;4.43;;;18.40;99.90;;;;;;5079841;28;20059;-84
2022/08/07 08:49:50;;;;;;;4.88;3.97;;;18.60;99.90;;;;;;5080574;28;20054;-83
2022/08/07 08:52:21;;;;;;;7.78;4.50;;;18.50;99.90;;;;;;5096566;28;20044;-81
2022/08/07 08:54:59;;;;;;;5.78;4.20;;;18.90;99.90;;;;;;5080683;28;20042;-83
2022/08/07 08:57:34;;;;;;;8.60;3.88;;;19.00;99.90;;;;;;5080020;28;20050;-81
2022/08/07 09:00:07;;;;;;;6.20;3.40;;;18.90;99.90;;;;;;5097013;28;20488;-82
2022/08/07 09:02:55;;;;;;;16.40;4.40;;;19.10;99.90;;;;;;5079646;28;20048;-77
2022/08/07 09:05:45;;;;;;;4.18;3.35;;;19.20;99.90;;;;;;5099221;28;20059;-78
2022/08/07 09:08:29;;;;;;;4.97;3.85;;;19.20;99.90;;;;;;5096961;28;20066;-77
2022/08/07 09:11:07;;;;;;;3.35;2.92;;;19.10;99.90;;;;;;5098069;28;20055;-78
2022/08/07 09:13:38;;;;;;;4.10;3.35;;;19.20;99.90;;;;;;5116797;28;20138;-77
2022/08/07 09:16:39;;;;;;;5.70;3.72;;;19.40;99.90;;;;;;5096595;28;20043;-77
2022/08/07 09:19:34;;;;;;;4.85;3.42;;;19.30;99.90;;;;;;5131302;27;20381;-77
2022/08/07 09:22:38;;;;;;;5.10;3.35;;;19.50;99.90;;;;;;5116444;27;20039;-79
2022/08/07 09:25:12;;;;;;;7.03;4.00;;;19.60;99.90;;;;;;5116697;27;20043;-74
2022/08/07 09:27:49;;;;;;;3.95;3.55;;;19.80;99.90;;;;;;5099626;27;20091;-77
2022/08/07 09:30:16;;;;;;;3.25;2.92;;;20.30;99.90;;;;;;5116080;27;20035;-77
2022/08/07 09:32:54;;;;;;;4.90;3.38;;;20.40;99.90;;;;;;5099163;27;20049;-79
2022/08/07 09:35:42;;;;;;;3.70;3.10;;;20.30;99.90;;;;;;5116440;27;20046;-79
2022/08/07 09:38:12;;;;;;;5.95;2.78;;;20.20;99.90;;;;;;5099048;27;20125;-79
2022/08/07 09:40:56;;;;;;;5.00;3.58;;;20.50;99.90;;;;;;5115854;27;20051;-79
2022/08/07 09:43:48;;;;;;;9.77;3.67;;;20.60;99.90;;;;;;5098957;27;20051;-85
2022/08/07 09:46:35;;;;;;;4.80;3.08;;;20.50;99.90;;;;;;5099078;27;20562;-77
2022/08/07 09:49:32;;;;;;;4.25;3.22;;;20.30;99.90;;;;;;5133380;27;20039;-77
2022/08/07 09:52:41;;;;;;;4.28;3.00;;;20.30;99.90;;;;;;5112401;28;20078;-80
2022/08/07 09:55:22;;;;;;;3.63;3.33;;;20.80;99.90;;;;;;5095722;28;20412;-83
2022/08/07 09:58:15;;;;;;;7.95;2.67;;;20.70;99.90;;;;;;5095468;28;20517;-80
2022/08/07 10:01:01;;;;;;;4.78;3.10;;;20.60;99.90;;;;;;5112564;28;20035;-81
2022/08/07 10:04:05;;;;;;;2.70;2.50;;;20.80;99.90;;;;;;5112812;28;20043;-91
2022/08/07 10:06:30;;;;;;;3.38;2.80;;;21.10;99.90;;;;;;5081388;28;20485;-80
2022/08/07 10:09:19;;;;;;;3.38;2.72;;;20.90;99.90;;;;;;5112727;28;20051;-80
2022/08/07 10:11:54;;;;;;;6.63;4.10;;;20.60;99.90;;;;;;5094984;28;20040;-81
2022/08/07 10:14:41;;;;;;;6.22;2.78;;;20.70;99.90;;;;;;5118677;28;20523;-80
2022/08/07 10:17:38;;;;;;;9.75;3.03;;;20.60;99.90;;;;;;5102786;28;20043;-83
2022/08/07 10:20:23;;;;;;;2.85;2.55;;;20.60;99.90;;;;;;5120848;28;20043;-83
2022/08/07 10:23:24;;;;;;;6.90;3.85;;;20.70;99.90;;;;;;5103786;28;20043;-82
2022/08/07 10:26:11;;;;;;;3.00;2.35;;;20.70;99.90;;;;;;5104227;28;20071;-83
2022/08/07 10:28:38;;;;;;;3.65;2.53;;;;;;;;;;5104210;28;20404;-83
2022/08/07 10:31:06;;;;;;;5.18;2.50;;;21.10;99.90;;;;;;5103595;28;20044;-82
2022/08/07 10:33:53;;;;;;;2.78;2.20;;;21.10;99.90;;;;;;5120389;28;20055;-82
2022/08/07 10:36:46;;;;;;;3.42;2.40;;;21.20;99.90;;;;;;5119669;28;20044;-85
2022/08/07 10:39:28;;;;;;;4.88;2.67;;;21.40;99.90;;;;;;5102651;28;20043;-83
2022/08/07 10:42:18;;;;;;;4.13;2.53;;;21.40;99.90;;;;;;5102720;28;20050;-83
2022/08/07 10:45:23;;;;;;;3.03;2.60;;;21.30;99.90;;;;;;5119695;28;20054;-83
2022/08/07 10:48:14;;;;;;;3.92;2.70;;;21.60;99.90;;;;;;5101699;28;20039;-80
2022/08/07 10:50:52;;;;;;;2.65;2.45;;;21.70;99.90;;;;;;5100754;28;20047;-78
2022/08/07 10:53:56;;;;;;;2.42;2.22;;;21.80;99.90;;;;;;5101231;28;20047;-80
2022/08/07 10:56:39;;;;;;;3.85;2.25;;;21.90;99.90;;;;;;5101035;28;20194;-80
2022/08/07 10:59:23;;;;;;;2.28;2.05;;;22.00;99.90;;;;;;5101163;28;20048;-80
2022/08/07 11:01:52;;;;;;;5.03;2.75;;;22.00;99.90;;;;;;5101013;28;20048;-80
2022/08/07 11:04:51;;;;;;;4.43;2.95;;;22.00;99.90;;;;;;5100629;28;20400;-80
2022/08/07 11:07:35;;;;;;;2.53;2.33;;;22.20;99.90;;;;;;5116624;28;20048;-80
2022/08/07 11:10:03;;;;;;;;;;;22.00;99.90;;;;;;5117469;28;20054;-80
2022/08/07 11:12:42;;;;;;;3.05;2.47;;;22.10;99.90;;;;;;5099734;28;19920;-80
2022/08/07 11:15:22;;;;;;;6.25;2.97;;;22.00;99.90;;;;;;5117151;28;20384;-81
2022/08/07 11:17:57;;;;;;;2.13;1.92;;;22.00;99.90;;;;;;5099385;28;20035;-80
2022/08/07 11:20:47;;;;;;;3.65;2.28;;;22.10;99.90;;;;;;5116065;28;20078;-79
2022/08/07 11:23:31;;;;;;;4.20;2.42;;;22.10;99.90;;;;;;5098821;28;20396;-79
2022/08/07 11:26:07;;;;;;;2.90;2.13;;;22.10;99.90;;;;;;5098858;28;20046;-81
2022/08/07 11:28:44;;;;;;;4.85;2.10;;;22.10;99.90;;;;;;5096936;28;20051;-80
2022/08/07 11:31:38;;;;;;;2.45;2.05;;;22.30;99.90;;;;;;5110669;28;20047;-81
2022/08/07 11:34:26;;;;;;;3.53;1.88;;;21.90;99.90;;;;;;5110798;28;20044;-81
2022/08/07 11:36:55;;;;;;;4.15;1.90;;;22.20;99.90;;;;;;5110928;28;20122;-81
2022/08/07 11:39:46;;;;;;;4.80;2.22;;;22.40;99.90;;;;;;5094075;28;20530;-81
2022/08/07 11:42:24;;;;;;;2.28;1.63;;;22.70;99.90;;;;;;5093637;28;20047;-80
2022/08/07 11:45:21;;;;;;;2.08;1.88;;;22.60;99.90;;;;;;5093780;28;20036;-80
2022/08/07 11:47:56;;;;;;;3.85;2.10;;;22.60;99.90;;;;;;5107582;28;20066;-81
2022/08/07 11:50:22;;;;;;;2.88;1.90;;;;;;;;;;5093986;28;20415;-82
2022/08/07 11:53:26;;;;;;;4.45;2.53;;;22.70;99.90;;;;;;5110643;28;20051;-81
2022/08/07 11:56:43;;;;;;;1.98;1.77;;;22.80;99.90;;;;;;5110607;28;20044;-81
2022/08/07 11:59:50;;;;;;;1.92;1.77;;;22.80;99.90;;;;;;5032630;28;20095;-81
2022/08/07 12:02:29;;;;;;;2.40;2.20;;;22.30;99.90;;;;;;4989934;28;20059;-80
2022/08/07 12:05:10;;;;;;;3.65;2.15;;;22.40;99.90;;;;;;4974279;28;20050;-81
2022/08/07 12:07:44;;;;;;;2.13;1.98;;;22.20;99.90;;;;;;4973473;28;20054;-81
2022/08/07 12:10:26;;;;;;;2.97;2.00;;;22.00;99.90;;;;;;4989474;28;20101;-81
2022/08/07 12:13:03;;;;;;;13.80;2.53;;;22.10;99.90;;;;;;4976722;28;20054;-80
2022/08/07 12:15:37;;;;;;;2.75;2.00;;;21.70;99.90;;;;;;4977417;28;20129;-81
2022/08/07 12:18:14;;;;;;;4.88;2.65;;;23.50;99.90;;;;;;4977258;28;20173;-81
2022/08/07 12:21:20;;;;;;;2.80;2.50;;;21.90;99.90;;;;;;4975350;28;20162;-81
2022/08/07 12:23:48;;;;;;;3.30;2.47;;;21.80;99.90;;;;;;4993496;28;20054;-81
2022/08/07 12:26:44;;;;;;;2.88;2.38;;;22.00;99.90;;;;;;4977335;28;20046;-81
2022/08/07 12:29:34;;;;;;;5.70;2.35;;;21.60;99.90;;;;;;4977345;28;20063;-80
2022/08/07 12:32:08;;;;;;;4.68;2.20;;;21.70;99.90;;;;;;4960765;28;20526;-81
2022/08/07 12:34:37;;;;;;;3.45;2.13;;;21.40;99.90;;;;;;5020663;28;20544;-81
2022/08/07 12:37:05;;;;;;;3.50;2.67;;;21.50;99.90;;;;;;5103627;28;20051;-81
2022/08/07 12:39:32;;;;;;;2.78;2.20;;;21.50;99.90;;;;;;5113723;28;20048;-81
2022/08/07 12:42:00;;;;;;;2.80;2.60;;;21.70;99.90;;;;;;5096932;28;20055;-81
2022/08/07 12:44:28;;;;;;;4.47;2.47;;;21.90;99.90;;;;;;5114020;28;20077;-80
2022/08/07 12:47:18;;;;;;;5.13;2.10;;;21.80;99.90;;;;;;5113685;28;20048;-81
2022/08/07 12:50:05;;;;;;;5.38;2.30;;;22.10;99.90;;;;;;5113729;28;20380;-81
2022/08/07 12:52:48;;;;;;;2.83;2.50;;;22.40;99.90;;;;;;5096782;28;20134;-81
2022/08/07 12:55:23;;;;;;;3.03;2.20;;;22.50;99.90;;;;;;5096450;28;20039;-81
2022/08/07 12:57:56;;;;;;;4.28;2.70;;;22.70;99.90;;;;;;5114768;28;20043;-81
2022/08/07 13:00:32;;;;;;;2.45;2.10;;;22.60;99.90;;;;;;5113803;28;20495;-81
2022/08/07 13:03:18;;;;;;;4.13;2.67;;;22.90;99.90;;;;;;5096293;28;20499;-81
2022/08/07 13:06:16;;;;;;;2.85;2.45;;;23.10;99.90;;;;;;5113252;28;20043;-81
2022/08/07 13:09:26;;;;;;;3.10;2.53;;;23.30;99.90;;;;;;5082432;28;20067;-80
2022/08/07 13:12:10;;;;;;;5.22;2.10;;;23.20;99.90;;;;;;5034707;28;20067;-80
2022/08/07 13:14:54;;;;;;;4.82;2.65;;;23.50;99.90;;;;;;5034923;28;20049;-81
2022/08/07 13:17:24;;;;;;;;;;;23.80;99.90;;;;;;5035570;28;20140;-81
2022/08/07 13:19:58;;;;;;;3.03;1.80;;;23.60;99.90;;;;;;5035054;28;19967;-81
2022/08/07 13:22:40;;;;;;;2.28;2.08;;;24.00;99.90;;;;;;5034694;28;20218;-81
2022/08/07 13:25:10;;;;;;;3.13;2.17;;;23.90;99.90;;;;;;5034470;28;20493;-82
2022/08/07 13:27:40;;;;;;;2.45;1.83;;;24.00;99.90;;;;;;5034578;28;20041;-81
2022/08/07 13:30:13;;;;;;;2.38;1.98;;;23.70;99.90;;;;;;5018293;28;20186;-80
2022/08/07 13:32:47;;;;;;;2.42;1.65;;;23.70;99.90;;;;;;5034803;28;20048;-81
2022/08/07 13:35:39;;;;;;;3.58;2.22;;;23.40;99.90;;;;;;5034551;28;20052;-81
2022/08/07 13:38:38;;;;;;;2.22;1.60;;;23.70;99.90;;;;;;5027400;28;20218;-81
2022/08/07 13:41:22;;;;;;;2.35;1.50;;;23.70;99.90;;;;;;4991927;28;20058;-81
2022/08/07 13:43:50;;;;;;;1.98;1.58;;;23.40;99.90;;;;;;4975321;28;20511;-81
2022/08/07 13:46:18;;;;;;;1.98;1.77;;;23.50;99.90;;;;;;4975269;28;20522;-81
2022/08/07 13:48:47;;;;;;;2.20;1.60;;;23.40;99.90;;;;;;5025893;28;20048;-81
2022/08/07 13:51:15;;;;;;;3.40;1.70;;;23.50;99.90;;;;;;5042347;28;20433;-80
2022/08/07 13:53:51;;;;;;;2.90;1.67;;;23.50;99.90;;;;;;5034309;28;20048;-81
2022/08/07 13:56:21;;;;;;;2.92;1.80;;;23.40;99.90;;;;;;5051085;28;20422;-80
2022/08/07 13:59:02;;;;;;;3.03;1.40;;;23.30;99.90;;;;;;5033944;28;20537;-81
2022/08/07 14:01:35;;;;;;;3.38;1.67;;;23.40;99.90;;;;;;5050829;28;20045;-80
2022/08/07 14:04:10;;;;;;;2.20;1.73;;;23.20;99.90;;;;;;5038683;28;20045;-81
2022/08/07 14:06:42;;;;;;;5.97;2.17;;;23.20;99.90;;;;;;4998088;28;20560;-81